sensor_id;sensor_type;location;lat;lon;timestamp;P1;durP1;ratioP1;P2;durP2;ratioP2
52057;SDS011;38063;53.210;6.504;2022-11-15T00:02:07;29.10;;;17.70;;
52057;SDS011;38063;53.210;6.504;2022-11-15T00:04:32;33.63;;;18.88;;
52057;SDS011;38063;53.210;6.504;2022-11-15T00:06:58;28.48;;;18.08;;
52057;SDS011;38063;53.210;6.504;2022-11-15T00:09:25;30.17;;;18.63;;
52057;SDS011;38063;53.210;6.504;2022-11-15T00:11:51;33.17;;;18.98;;
52057;SDS011;38063;53.210;6.504;2022-11-15T00:14:17;29.95;;;18.55;;
52057;SDS011;38063;53.210;6.504;2022-11-15T00:16:42;30.10;;;17.63;;
52057;SDS011;38063;53.210;6.504;2022-11-15T00:19:08;28.50;;;16.95;;
52057;SDS011;38063;53.210;6.504;2022-11-15T00:21:34;27.52;;;17.65;;
52057;SDS011;38063;53.210;6.504;2022-11-15T00:24:00;31.75;;;18.13;;
52057;SDS011;38063;53.210;6.504;2022-11-15T00:26:25;29.00;;;17.70;;
52057;SDS011;38063;53.210;6.504;2022-11-15T00:28:51;31.13;;;17.33;;
52057;SDS011;38063;53.210;6.504;2022-11-15T00:31:18;30.85;;;19.02;;
52057;SDS011;38063;53.210;6.504;2022-11-15T00:33:44;29.70;;;17.85;;
52057;SDS011;38063;53.210;6.504;2022-11-15T00:36:10;33.78;;;19.10;;
52057;SDS011;38063;53.210;6.504;2022-11-15T00:38:36;31.65;;;18.00;;
52057;SDS011;38063;53.210;6.504;2022-11-15T00:41:03;29.67;;;18.73;;
52057;SDS011;38063;53.210;6.504;2022-11-15T00:43:30;32.25;;;19.40;;
52057;SDS011;38063;53.210;6.504;2022-11-15T00:45:55;32.88;;;19.02;;
52057;SDS011;38063;53.210;6.504;2022-11-15T00:48:21;30.42;;;18.52;;
52057;SDS011;38063;53.210;6.504;2022-11-15T00:50:48;30.98;;;18.58;;
52057;SDS011;38063;53.210;6.504;2022-11-15T00:53:14;32.42;;;18.67;;
52057;SDS011;38063;53.210;6.504;2022-11-15T00:55:39;30.98;;;19.80;;
52057;SDS011;38063;53.210;6.504;2022-11-15T00:58:05;29.25;;;17.92;;
52057;SDS011;38063;53.210;6.504;2022-11-15T01:00:30;30.75;;;18.60;;
52057;SDS011;38063;53.210;6.504;2022-11-15T01:02:56;30.08;;;18.92;;
52057;SDS011;38063;53.210;6.504;2022-11-15T01:05:22;32.15;;;18.67;;
52057;SDS011;38063;53.210;6.504;2022-11-15T01:07:51;35.65;;;18.60;;
52057;SDS011;38063;53.210;6.504;2022-11-15T01:10:17;31.52;;;17.60;;
52057;SDS011;38063;53.210;6.504;2022-11-15T01:12:43;31.77;;;19.85;;
52057;SDS011;38063;53.210;6.504;2022-11-15T01:15:09;32.78;;;19.30;;
52057;SDS011;38063;53.210;6.504;2022-11-15T01:17:35;31.63;;;19.17;;
52057;SDS011;38063;53.210;6.504;2022-11-15T01:20:00;30.80;;;19.05;;
52057;SDS011;38063;53.210;6.504;2022-11-15T01:22:26;29.52;;;17.98;;
52057;SDS011;38063;53.210;6.504;2022-11-15T01:24:52;29.92;;;18.38;;
52057;SDS011;38063;53.210;6.504;2022-11-15T01:27:18;29.13;;;18.25;;
52057;SDS011;38063;53.210;6.504;2022-11-15T01:29:43;27.50;;;18.50;;
52057;SDS011;38063;53.210;6.504;2022-11-15T01:32:09;29.70;;;18.52;;
52057;SDS011;38063;53.210;6.504;2022-11-15T01:34:34;29.60;;;18.02;;
52057;SDS011;38063;53.210;6.504;2022-11-15T01:37:00;30.60;;;17.85;;
52057;SDS011;38063;53.210;6.504;2022-11-15T01:39:26;35.03;;;18.75;;
52057;SDS011;38063;53.210;6.504;2022-11-15T01:41:52;30.45;;;18.23;;
52057;SDS011;38063;53.210;6.504;2022-11-15T01:47:05;32.35;;;18.73;;
52057;SDS011;38063;53.210;6.504;2022-11-15T01:52:36;34.25;;;20.63;;
52057;SDS011;38063;53.210;6.504;2022-11-15T01:57:35;32.88;;;21.52;;
52057;SDS011;38063;53.210;6.504;2022-11-15T02:00:03;36.38;;;21.27;;
52057;SDS011;38063;53.210;6.504;2022-11-15T02:02:29;35.58;;;21.25;;
52057;SDS011;38063;53.210;6.504;2022-11-15T02:04:55;33.90;;;19.27;;
52057;SDS011;38063;53.210;6.504;2022-11-15T02:07:21;34.42;;;20.67;;
52057;SDS011;38063;53.210;6.504;2022-11-15T02:09:47;36.70;;;19.10;;
52057;SDS011;38063;53.210;6.504;2022-11-15T02:12:15;34.00;;;20.52;;
52057;SDS011;38063;53.210;6.504;2022-11-15T02:14:44;33.45;;;19.52;;
52057;SDS011;38063;53.210;6.504;2022-11-15T02:22:51;30.80;;;18.35;;
52057;SDS011;38063;53.210;6.504;2022-11-15T02:25:39;32.22;;;18.83;;
52057;SDS011;38063;53.210;6.504;2022-11-15T02:30:47;31.15;;;18.08;;
52057;SDS011;38063;53.210;6.504;2022-11-15T02:35:57;31.50;;;19.02;;
52057;SDS011;38063;53.210;6.504;2022-11-15T02:41:39;30.42;;;16.92;;
52057;SDS011;38063;53.210;6.504;2022-11-15T02:44:23;29.38;;;17.48;;
52057;SDS011;38063;53.210;6.504;2022-11-15T02:46:58;29.17;;;17.83;;
52057;SDS011;38063;53.210;6.504;2022-11-15T02:49:37;30.90;;;17.55;;
52057;SDS011;38063;53.210;6.504;2022-11-15T02:52:06;31.10;;;17.90;;
52057;SDS011;38063;53.210;6.504;2022-11-15T02:54:32;34.05;;;18.27;;
52057;SDS011;38063;53.210;6.504;2022-11-15T02:57:10;35.05;;;19.02;;
52057;SDS011;38063;53.210;6.504;2022-11-15T03:08:04;39.42;;;19.88;;
52057;SDS011;38063;53.210;6.504;2022-11-15T03:19:05;41.58;;;19.60;;
52057;SDS011;38063;53.210;6.504;2022-11-15T03:21:39;36.33;;;19.45;;
52057;SDS011;38063;53.210;6.504;2022-11-15T03:24:06;39.45;;;20.98;;
52057;SDS011;38063;53.210;6.504;2022-11-15T03:26:34;39.97;;;20.02;;
52057;SDS011;38063;53.210;6.504;2022-11-15T03:29:04;36.72;;;19.30;;
52057;SDS011;38063;53.210;6.504;2022-11-15T03:31:37;43.70;;;20.95;;
52057;SDS011;38063;53.210;6.504;2022-11-15T03:34:18;36.80;;;19.75;;
52057;SDS011;38063;53.210;6.504;2022-11-15T03:36:57;38.92;;;19.42;;
52057;SDS011;38063;53.210;6.504;2022-11-15T03:39:22;33.72;;;19.35;;
52057;SDS011;38063;53.210;6.504;2022-11-15T03:44:49;36.28;;;19.50;;
52057;SDS011;38063;53.210;6.504;2022-11-15T03:50:00;46.47;;;21.45;;
52057;SDS011;38063;53.210;6.504;2022-11-15T03:52:35;42.63;;;20.90;;
52057;SDS011;38063;53.210;6.504;2022-11-15T03:55:01;45.88;;;20.73;;
52057;SDS011;38063;53.210;6.504;2022-11-15T03:57:28;39.97;;;19.48;;
52057;SDS011;38063;53.210;6.504;2022-11-15T03:59:54;40.65;;;20.50;;
52057;SDS011;38063;53.210;6.504;2022-11-15T04:02:20;38.25;;;19.88;;
52057;SDS011;38063;53.210;6.504;2022-11-15T04:04:45;45.60;;;20.85;;
52057;SDS011;38063;53.210;6.504;2022-11-15T04:07:11;38.70;;;20.63;;
52057;SDS011;38063;53.210;6.504;2022-11-15T04:09:37;38.65;;;20.33;;
52057;SDS011;38063;53.210;6.504;2022-11-15T04:12:22;45.45;;;20.75;;
52057;SDS011;38063;53.210;6.504;2022-11-15T04:15:05;40.08;;;20.02;;
52057;SDS011;38063;53.210;6.504;2022-11-15T04:17:34;45.92;;;21.13;;
52057;SDS011;38063;53.210;6.504;2022-11-15T04:20:30;42.22;;;20.77;;
52057;SDS011;38063;53.210;6.504;2022-11-15T04:23:18;44.55;;;21.02;;
52057;SDS011;38063;53.210;6.504;2022-11-15T04:26:11;39.38;;;19.42;;
52057;SDS011;38063;53.210;6.504;2022-11-15T04:28:40;47.15;;;20.33;;
52057;SDS011;38063;53.210;6.504;2022-11-15T04:31:24;45.10;;;21.50;;
52057;SDS011;38063;53.210;6.504;2022-11-15T04:33:50;48.17;;;21.52;;
52057;SDS011;38063;53.210;6.504;2022-11-15T04:36:16;46.53;;;20.90;;
52057;SDS011;38063;53.210;6.504;2022-11-15T04:39:01;47.83;;;21.83;;
52057;SDS011;38063;53.210;6.504;2022-11-15T04:41:26;52.20;;;22.08;;
52057;SDS011;38063;53.210;6.504;2022-11-15T04:43:52;44.55;;;21.13;;
52057;SDS011;38063;53.210;6.504;2022-11-15T04:46:17;51.75;;;22.98;;
52057;SDS011;38063;53.210;6.504;2022-11-15T04:48:43;48.55;;;21.45;;
52057;SDS011;38063;53.210;6.504;2022-11-15T04:51:09;54.85;;;22.50;;
52057;SDS011;38063;53.210;6.504;2022-11-15T04:53:34;53.88;;;23.02;;
52057;SDS011;38063;53.210;6.504;2022-11-15T04:56:00;46.80;;;21.73;;
52057;SDS011;38063;53.210;6.504;2022-11-15T04:58:25;55.83;;;23.75;;
52057;SDS011;38063;53.210;6.504;2022-11-15T05:00:51;54.85;;;22.95;;
52057;SDS011;38063;53.210;6.504;2022-11-15T05:03:17;48.92;;;23.35;;
52057;SDS011;38063;53.210;6.504;2022-11-15T05:06:01;58.65;;;24.20;;
52057;SDS011;38063;53.210;6.504;2022-11-15T05:08:26;54.20;;;23.95;;
52057;SDS011;38063;53.210;6.504;2022-11-15T05:10:52;53.05;;;23.90;;
52057;SDS011;38063;53.210;6.504;2022-11-15T05:13:18;59.60;;;24.13;;
52057;SDS011;38063;53.210;6.504;2022-11-15T05:15:43;57.85;;;23.17;;
52057;SDS011;38063;53.210;6.504;2022-11-15T05:18:09;58.85;;;25.40;;
52057;SDS011;38063;53.210;6.504;2022-11-15T05:20:36;62.13;;;25.55;;
52057;SDS011;38063;53.210;6.504;2022-11-15T05:23:02;62.40;;;26.50;;
52057;SDS011;38063;53.210;6.504;2022-11-15T05:25:27;61.45;;;25.65;;
52057;SDS011;38063;53.210;6.504;2022-11-15T05:27:53;65.80;;;25.88;;
52057;SDS011;38063;53.210;6.504;2022-11-15T05:30:19;61.80;;;26.27;;
52057;SDS011;38063;53.210;6.504;2022-11-15T05:32:45;72.78;;;27.88;;
52057;SDS011;38063;53.210;6.504;2022-11-15T05:35:15;79.40;;;28.63;;
52057;SDS011;38063;53.210;6.504;2022-11-15T05:37:46;73.13;;;29.08;;
52057;SDS011;38063;53.210;6.504;2022-11-15T05:40:12;75.30;;;27.55;;
52057;SDS011;38063;53.210;6.504;2022-11-15T05:42:38;78.30;;;29.23;;
52057;SDS011;38063;53.210;6.504;2022-11-15T05:45:04;73.22;;;29.42;;
52057;SDS011;38063;53.210;6.504;2022-11-15T05:47:31;80.97;;;29.73;;
52057;SDS011;38063;53.210;6.504;2022-11-15T05:50:00;85.15;;;30.08;;
52057;SDS011;38063;53.210;6.504;2022-11-15T05:52:27;74.18;;;31.20;;
52057;SDS011;38063;53.210;6.504;2022-11-15T05:54:56;78.22;;;30.23;;
52057;SDS011;38063;53.210;6.504;2022-11-15T05:57:23;79.20;;;30.38;;
52057;SDS011;38063;53.210;6.504;2022-11-15T05:59:49;92.93;;;31.50;;
52057;SDS011;38063;53.210;6.504;2022-11-15T06:02:16;91.05;;;33.22;;
52057;SDS011;38063;53.210;6.504;2022-11-15T06:04:41;89.93;;;32.85;;
52057;SDS011;38063;53.210;6.504;2022-11-15T06:07:07;98.57;;;33.95;;
52057;SDS011;38063;53.210;6.504;2022-11-15T06:09:32;91.70;;;33.42;;
52057;SDS011;38063;53.210;6.504;2022-11-15T06:11:58;92.10;;;34.10;;
52057;SDS011;38063;53.210;6.504;2022-11-15T06:14:24;94.95;;;35.63;;
52057;SDS011;38063;53.210;6.504;2022-11-15T06:16:49;97.75;;;33.72;;
52057;SDS011;38063;53.210;6.504;2022-11-15T06:19:18;100.32;;;34.58;;
52057;SDS011;38063;53.210;6.504;2022-11-15T06:21:43;99.40;;;36.60;;
52057;SDS011;38063;53.210;6.504;2022-11-15T06:24:09;102.28;;;35.60;;
52057;SDS011;38063;53.210;6.504;2022-11-15T06:26:35;98.63;;;34.75;;
52057;SDS011;38063;53.210;6.504;2022-11-15T06:29:02;101.15;;;36.10;;
52057;SDS011;38063;53.210;6.504;2022-11-15T06:31:28;109.80;;;36.45;;
52057;SDS011;38063;53.210;6.504;2022-11-15T06:33:54;97.20;;;36.75;;
52057;SDS011;38063;53.210;6.504;2022-11-15T06:36:19;99.85;;;37.33;;
52057;SDS011;38063;53.210;6.504;2022-11-15T06:38:45;102.15;;;36.92;;
52057;SDS011;38063;53.210;6.504;2022-11-15T06:41:12;100.72;;;36.25;;
52057;SDS011;38063;53.210;6.504;2022-11-15T06:43:38;103.80;;;36.70;;
52057;SDS011;38063;53.210;6.504;2022-11-15T06:46:04;107.22;;;38.38;;
52057;SDS011;38063;53.210;6.504;2022-11-15T06:48:32;103.05;;;37.90;;
52057;SDS011;38063;53.210;6.504;2022-11-15T06:50:59;113.13;;;38.42;;
52057;SDS011;38063;53.210;6.504;2022-11-15T06:53:26;114.88;;;39.60;;
52057;SDS011;38063;53.210;6.504;2022-11-15T06:55:52;108.85;;;37.97;;
52057;SDS011;38063;53.210;6.504;2022-11-15T06:58:18;106.97;;;37.92;;
52057;SDS011;38063;53.210;6.504;2022-11-15T07:00:45;108.63;;;38.50;;
52057;SDS011;38063;53.210;6.504;2022-11-15T07:03:11;110.72;;;38.08;;
52057;SDS011;38063;53.210;6.504;2022-11-15T07:05:36;104.10;;;36.97;;
52057;SDS011;38063;53.210;6.504;2022-11-15T07:08:02;97.28;;;37.30;;
52057;SDS011;38063;53.210;6.504;2022-11-15T07:10:28;106.68;;;37.70;;
52057;SDS011;38063;53.210;6.504;2022-11-15T07:12:54;102.70;;;38.25;;
52057;SDS011;38063;53.210;6.504;2022-11-15T07:15:21;119.32;;;38.72;;
52057;SDS011;38063;53.210;6.504;2022-11-15T07:17:49;102.57;;;36.72;;
52057;SDS011;38063;53.210;6.504;2022-11-15T07:20:15;99.53;;;38.05;;
52057;SDS011;38063;53.210;6.504;2022-11-15T07:22:41;96.70;;;38.08;;
52057;SDS011;38063;53.210;6.504;2022-11-15T07:25:08;99.13;;;36.33;;
52057;SDS011;38063;53.210;6.504;2022-11-15T07:27:34;89.20;;;37.25;;
52057;SDS011;38063;53.210;6.504;2022-11-15T07:30:00;104.00;;;38.10;;
52057;SDS011;38063;53.210;6.504;2022-11-15T07:32:26;99.80;;;37.03;;
52057;SDS011;38063;53.210;6.504;2022-11-15T07:34:52;98.30;;;37.78;;
52057;SDS011;38063;53.210;6.504;2022-11-15T07:37:17;98.18;;;38.95;;
52057;SDS011;38063;53.210;6.504;2022-11-15T07:39:43;97.07;;;37.47;;
52057;SDS011;38063;53.210;6.504;2022-11-15T07:42:09;97.90;;;37.28;;
52057;SDS011;38063;53.210;6.504;2022-11-15T07:44:53;99.35;;;36.67;;
52057;SDS011;38063;53.210;6.504;2022-11-15T07:47:19;90.50;;;36.80;;
52057;SDS011;38063;53.210;6.504;2022-11-15T07:49:45;94.70;;;35.85;;
52057;SDS011;38063;53.210;6.504;2022-11-15T07:52:11;90.53;;;36.10;;
52057;SDS011;38063;53.210;6.504;2022-11-15T07:54:38;91.82;;;35.60;;
52057;SDS011;38063;53.210;6.504;2022-11-15T07:57:04;82.93;;;34.58;;
52057;SDS011;38063;53.210;6.504;2022-11-15T07:59:30;83.53;;;34.00;;
52057;SDS011;38063;53.210;6.504;2022-11-15T08:01:56;87.93;;;34.17;;
52057;SDS011;38063;53.210;6.504;2022-11-15T08:04:22;86.43;;;35.10;;
52057;SDS011;38063;53.210;6.504;2022-11-15T08:06:47;81.15;;;32.67;;
52057;SDS011;38063;53.210;6.504;2022-11-15T08:09:13;85.80;;;33.78;;
52057;SDS011;38063;53.210;6.504;2022-11-15T08:11:39;77.68;;;33.88;;
52057;SDS011;38063;53.210;6.504;2022-11-15T08:14:04;78.70;;;32.10;;
52057;SDS011;38063;53.210;6.504;2022-11-15T08:16:30;73.03;;;33.92;;
52057;SDS011;38063;53.210;6.504;2022-11-15T08:18:55;75.60;;;32.60;;
52057;SDS011;38063;53.210;6.504;2022-11-15T08:21:21;71.60;;;32.78;;
52057;SDS011;38063;53.210;6.504;2022-11-15T08:23:47;73.47;;;32.50;;
52057;SDS011;38063;53.210;6.504;2022-11-15T08:26:13;72.97;;;32.33;;
52057;SDS011;38063;53.210;6.504;2022-11-15T08:28:39;74.53;;;32.65;;
52057;SDS011;38063;53.210;6.504;2022-11-15T08:31:05;71.70;;;31.90;;
52057;SDS011;38063;53.210;6.504;2022-11-15T08:33:31;66.93;;;31.77;;
52057;SDS011;38063;53.210;6.504;2022-11-15T08:35:58;70.53;;;31.65;;
52057;SDS011;38063;53.210;6.504;2022-11-15T08:38:25;63.65;;;29.40;;
52057;SDS011;38063;53.210;6.504;2022-11-15T08:40:52;63.72;;;30.58;;
52057;SDS011;38063;53.210;6.504;2022-11-15T08:43:24;61.90;;;30.77;;
52057;SDS011;38063;53.210;6.504;2022-11-15T08:45:50;57.47;;;28.17;;
52057;SDS011;38063;53.210;6.504;2022-11-15T08:48:16;56.40;;;28.55;;
52057;SDS011;38063;53.210;6.504;2022-11-15T08:50:41;57.47;;;28.88;;
52057;SDS011;38063;53.210;6.504;2022-11-15T08:53:09;59.05;;;28.63;;
52057;SDS011;38063;53.210;6.504;2022-11-15T08:55:36;58.58;;;28.45;;
52057;SDS011;38063;53.210;6.504;2022-11-15T08:58:03;56.42;;;28.60;;
52057;SDS011;38063;53.210;6.504;2022-11-15T09:00:29;56.60;;;26.88;;
52057;SDS011;38063;53.210;6.504;2022-11-15T09:02:54;52.60;;;27.08;;
52057;SDS011;38063;53.210;6.504;2022-11-15T09:05:20;50.55;;;26.75;;
52057;SDS011;38063;53.210;6.504;2022-11-15T09:07:46;56.65;;;27.23;;
52057;SDS011;38063;53.210;6.504;2022-11-15T09:10:11;50.50;;;26.83;;
52057;SDS011;38063;53.210;6.504;2022-11-15T09:12:37;49.38;;;26.45;;
52057;SDS011;38063;53.210;6.504;2022-11-15T09:15:03;55.65;;;25.63;;
52057;SDS011;38063;53.210;6.504;2022-11-15T09:17:30;46.53;;;24.67;;
52057;SDS011;38063;53.210;6.504;2022-11-15T09:19:56;48.15;;;24.63;;
52057;SDS011;38063;53.210;6.504;2022-11-15T09:22:21;43.35;;;23.48;;
52057;SDS011;38063;53.210;6.504;2022-11-15T09:24:47;41.95;;;23.33;;
52057;SDS011;38063;53.210;6.504;2022-11-15T09:27:12;39.13;;;23.27;;
52057;SDS011;38063;53.210;6.504;2022-11-15T09:29:38;41.58;;;21.95;;
52057;SDS011;38063;53.210;6.504;2022-11-15T09:32:04;36.92;;;21.63;;
52057;SDS011;38063;53.210;6.504;2022-11-15T09:34:30;35.95;;;21.02;;
52057;SDS011;38063;53.210;6.504;2022-11-15T09:36:55;38.10;;;21.35;;
52057;SDS011;38063;53.210;6.504;2022-11-15T09:39:21;36.72;;;20.58;;
52057;SDS011;38063;53.210;6.504;2022-11-15T09:49:54;37.72;;;19.73;;
52057;SDS011;38063;53.210;6.504;2022-11-15T09:52:23;37.13;;;21.13;;
52057;SDS011;38063;53.210;6.504;2022-11-15T09:54:50;33.50;;;19.35;;
52057;SDS011;38063;53.210;6.504;2022-11-15T09:57:39;35.95;;;19.42;;
52057;SDS011;38063;53.210;6.504;2022-11-15T10:00:33;35.85;;;18.63;;
52057;SDS011;38063;53.210;6.504;2022-11-15T10:05:37;33.80;;;17.77;;
52057;SDS011;38063;53.210;6.504;2022-11-15T10:08:11;30.45;;;18.52;;
52057;SDS011;38063;53.210;6.504;2022-11-15T10:11:02;30.30;;;18.17;;
52057;SDS011;38063;53.210;6.504;2022-11-15T10:13:34;34.72;;;17.40;;
52057;SDS011;38063;53.210;6.504;2022-11-15T10:19:13;27.35;;;17.40;;
52057;SDS011;38063;53.210;6.504;2022-11-15T10:21:55;28.85;;;17.60;;
52057;SDS011;38063;53.210;6.504;2022-11-15T10:24:43;33.50;;;16.27;;
52057;SDS011;38063;53.210;6.504;2022-11-15T10:27:12;29.50;;;17.45;;
52057;SDS011;38063;53.210;6.504;2022-11-15T10:29:43;26.23;;;17.05;;
52057;SDS011;38063;53.210;6.504;2022-11-15T10:32:11;27.20;;;17.30;;
52057;SDS011;38063;53.210;6.504;2022-11-15T10:34:38;25.38;;;16.05;;
52057;SDS011;38063;53.210;6.504;2022-11-15T10:37:04;24.48;;;16.20;;
52057;SDS011;38063;53.210;6.504;2022-11-15T10:39:30;29.25;;;16.50;;
52057;SDS011;38063;53.210;6.504;2022-11-15T10:41:56;27.38;;;16.58;;
52057;SDS011;38063;53.210;6.504;2022-11-15T10:44:23;25.70;;;15.70;;
52057;SDS011;38063;53.210;6.504;2022-11-15T10:49:23;25.60;;;15.32;;
52057;SDS011;38063;53.210;6.504;2022-11-15T10:52:02;25.92;;;15.80;;
52057;SDS011;38063;53.210;6.504;2022-11-15T10:57:36;25.67;;;15.05;;
52057;SDS011;38063;53.210;6.504;2022-11-15T11:00:45;24.25;;;15.55;;
52057;SDS011;38063;53.210;6.504;2022-11-15T11:05:48;24.35;;;14.52;;
52057;SDS011;38063;53.210;6.504;2022-11-15T11:08:38;26.08;;;15.40;;
52057;SDS011;38063;53.210;6.504;2022-11-15T11:11:04;25.38;;;14.90;;
52057;SDS011;38063;53.210;6.504;2022-11-15T11:13:33;25.50;;;15.02;;
52057;SDS011;38063;53.210;6.504;2022-11-15T11:16:19;23.75;;;15.05;;
52057;SDS011;38063;53.210;6.504;2022-11-15T11:21:50;25.10;;;14.45;;
52057;SDS011;38063;53.210;6.504;2022-11-15T11:24:22;23.33;;;14.48;;
52057;SDS011;38063;53.210;6.504;2022-11-15T11:42:07;22.63;;;12.57;;
52057;SDS011;38063;53.210;6.504;2022-11-15T11:48:21;17.98;;;12.82;;
52057;SDS011;38063;53.210;6.504;2022-11-15T11:50:45;19.42;;;12.18;;
52057;SDS011;38063;53.210;6.504;2022-11-15T11:53:23;18.50;;;12.07;;
52057;SDS011;38063;53.210;6.504;2022-11-15T11:56:04;16.50;;;11.43;;
52057;SDS011;38063;53.210;6.504;2022-11-15T11:59:02;18.35;;;11.27;;
52057;SDS011;38063;53.210;6.504;2022-11-15T12:01:42;17.38;;;10.48;;
52057;SDS011;38063;53.210;6.504;2022-11-15T12:09:23;11.95;;;6.45;;
52057;SDS011;38063;53.210;6.504;2022-11-15T12:12:15;12.00;;;5.70;;
52057;SDS011;38063;53.210;6.504;2022-11-15T12:15:02;8.43;;;4.55;;
52057;SDS011;38063;53.210;6.504;2022-11-15T12:17:34;9.15;;;4.95;;
52057;SDS011;38063;53.210;6.504;2022-11-15T12:20:06;7.95;;;5.00;;
52057;SDS011;38063;53.210;6.504;2022-11-15T12:25:33;10.00;;;4.82;;
52057;SDS011;38063;53.210;6.504;2022-11-15T12:28:16;10.23;;;4.78;;
52057;SDS011;38063;53.210;6.504;2022-11-15T12:33:42;13.27;;;5.28;;
52057;SDS011;38063;53.210;6.504;2022-11-15T12:38:55;7.10;;;3.13;;
52057;SDS011;38063;53.210;6.504;2022-11-15T12:41:29;8.57;;;3.72;;
52057;SDS011;38063;53.210;6.504;2022-11-15T12:43:57;10.55;;;3.25;;
52057;SDS011;38063;53.210;6.504;2022-11-15T13:02:45;6.53;;;2.40;;
52057;SDS011;38063;53.210;6.504;2022-11-15T13:17:37;7.57;;;2.90;;
52057;SDS011;38063;53.210;6.504;2022-11-15T13:22:46;5.50;;;2.90;;
52057;SDS011;38063;53.210;6.504;2022-11-15T13:25:27;5.43;;;3.20;;
52057;SDS011;38063;53.210;6.504;2022-11-15T13:27:58;7.03;;;3.60;;
52057;SDS011;38063;53.210;6.504;2022-11-15T13:30:24;9.57;;;3.92;;
52057;SDS011;38063;53.210;6.504;2022-11-15T13:32:52;8.27;;;3.58;;
52057;SDS011;38063;53.210;6.504;2022-11-15T13:35:23;6.43;;;4.00;;
52057;SDS011;38063;53.210;6.504;2022-11-15T13:37:50;6.32;;;3.78;;
52057;SDS011;38063;53.210;6.504;2022-11-15T13:40:25;8.32;;;3.78;;
52057;SDS011;38063;53.210;6.504;2022-11-15T13:42:55;7.50;;;3.78;;
52057;SDS011;38063;53.210;6.504;2022-11-15T13:45:21;7.60;;;3.92;;
52057;SDS011;38063;53.210;6.504;2022-11-15T13:47:53;8.25;;;3.80;;
52057;SDS011;38063;53.210;6.504;2022-11-15T13:50:22;4.68;;;3.42;;
52057;SDS011;38063;53.210;6.504;2022-11-15T13:52:57;8.38;;;3.90;;
52057;SDS011;38063;53.210;6.504;2022-11-15T13:55:24;6.35;;;3.22;;
52057;SDS011;38063;53.210;6.504;2022-11-15T13:57:57;7.78;;;3.47;;
52057;SDS011;38063;53.210;6.504;2022-11-15T14:03:12;7.68;;;3.05;;
52057;SDS011;38063;53.210;6.504;2022-11-15T14:11:34;9.30;;;4.03;;
52057;SDS011;38063;53.210;6.504;2022-11-15T14:16:40;4.68;;;2.90;;
52057;SDS011;38063;53.210;6.504;2022-11-15T14:19:12;5.82;;;3.42;;
52057;SDS011;38063;53.210;6.504;2022-11-15T14:24:44;6.10;;;3.33;;
52057;SDS011;38063;53.210;6.504;2022-11-15T14:27:25;5.03;;;2.65;;
52057;SDS011;38063;53.210;6.504;2022-11-15T14:29:52;4.32;;;2.40;;
52057;SDS011;38063;53.210;6.504;2022-11-15T14:32:20;5.57;;;2.92;;
52057;SDS011;38063;53.210;6.504;2022-11-15T14:34:48;6.70;;;2.88;;
52057;SDS011;38063;53.210;6.504;2022-11-15T14:37:22;5.38;;;2.90;;
52057;SDS011;38063;53.210;6.504;2022-11-15T14:39:52;4.30;;;2.65;;
52057;SDS011;38063;53.210;6.504;2022-11-15T14:42:18;5.10;;;2.63;;
52057;SDS011;38063;53.210;6.504;2022-11-15T14:44:45;4.78;;;2.22;;
52057;SDS011;38063;53.210;6.504;2022-11-15T14:47:11;4.93;;;2.20;;
52057;SDS011;38063;53.210;6.504;2022-11-15T14:49:37;6.53;;;2.17;;
52057;SDS011;38063;53.210;6.504;2022-11-15T14:52:07;7.80;;;2.35;;
52057;SDS011;38063;53.210;6.504;2022-11-15T14:54:44;5.38;;;2.45;;
52057;SDS011;38063;53.210;6.504;2022-11-15T14:57:10;3.22;;;2.25;;
52057;SDS011;38063;53.210;6.504;2022-11-15T14:59:35;6.57;;;2.65;;
52057;SDS011;38063;53.210;6.504;2022-11-15T15:02:01;6.88;;;2.75;;
52057;SDS011;38063;53.210;6.504;2022-11-15T15:04:26;6.80;;;2.60;;
52057;SDS011;38063;53.210;6.504;2022-11-15T15:06:52;7.88;;;2.38;;
52057;SDS011;38063;53.210;6.504;2022-11-15T15:09:18;3.25;;;2.17;;
52057;SDS011;38063;53.210;6.504;2022-11-15T15:11:43;9.25;;;2.53;;
52057;SDS011;38063;53.210;6.504;2022-11-15T15:14:09;5.15;;;2.67;;
52057;SDS011;38063;53.210;6.504;2022-11-15T15:16:35;4.03;;;2.30;;
52057;SDS011;38063;53.210;6.504;2022-11-15T15:19:01;6.82;;;3.10;;
52057;SDS011;38063;53.210;6.504;2022-11-15T15:21:27;3.92;;;2.20;;
52057;SDS011;38063;53.210;6.504;2022-11-15T15:23:53;5.32;;;2.33;;
52057;SDS011;38063;53.210;6.504;2022-11-15T15:26:19;5.63;;;2.55;;
52057;SDS011;38063;53.210;6.504;2022-11-15T15:28:45;5.03;;;2.78;;
52057;SDS011;38063;53.210;6.504;2022-11-15T15:31:13;6.95;;;2.60;;
52057;SDS011;38063;53.210;6.504;2022-11-15T15:33:39;7.82;;;2.38;;
52057;SDS011;38063;53.210;6.504;2022-11-15T15:36:08;7.18;;;2.40;;
52057;SDS011;38063;53.210;6.504;2022-11-15T15:38:38;3.47;;;2.08;;
52057;SDS011;38063;53.210;6.504;2022-11-15T15:41:10;6.95;;;2.50;;
52057;SDS011;38063;53.210;6.504;2022-11-15T15:43:36;5.40;;;2.30;;
52057;SDS011;38063;53.210;6.504;2022-11-15T15:46:01;4.82;;;2.40;;
52057;SDS011;38063;53.210;6.504;2022-11-15T15:48:27;4.60;;;2.45;;
52057;SDS011;38063;53.210;6.504;2022-11-15T15:50:53;6.00;;;2.45;;
52057;SDS011;38063;53.210;6.504;2022-11-15T15:53:18;5.68;;;2.60;;
52057;SDS011;38063;53.210;6.504;2022-11-15T15:55:44;5.97;;;3.17;;
52057;SDS011;38063;53.210;6.504;2022-11-15T15:58:09;6.38;;;3.00;;
52057;SDS011;38063;53.210;6.504;2022-11-15T16:00:35;5.60;;;3.30;;
52057;SDS011;38063;53.210;6.504;2022-11-15T16:03:01;4.82;;;3.35;;
52057;SDS011;38063;53.210;6.504;2022-11-15T16:05:27;5.15;;;3.35;;
52057;SDS011;38063;53.210;6.504;2022-11-15T16:07:53;4.90;;;3.55;;
52057;SDS011;38063;53.210;6.504;2022-11-15T16:10:23;6.05;;;3.80;;
52057;SDS011;38063;53.210;6.504;2022-11-15T16:12:59;5.22;;;3.92;;
52057;SDS011;38063;53.210;6.504;2022-11-15T16:15:26;5.85;;;4.15;;
52057;SDS011;38063;53.210;6.504;2022-11-15T16:17:53;7.38;;;4.30;;
52057;SDS011;38063;53.210;6.504;2022-11-15T16:20:28;6.78;;;4.40;;
52057;SDS011;38063;53.210;6.504;2022-11-15T16:23:09;8.27;;;4.63;;
52057;SDS011;38063;53.210;6.504;2022-11-15T16:25:37;6.93;;;4.78;;
52057;SDS011;38063;53.210;6.504;2022-11-15T16:28:20;8.77;;;4.40;;
52057;SDS011;38063;53.210;6.504;2022-11-15T16:31:00;7.53;;;4.82;;
52057;SDS011;38063;53.210;6.504;2022-11-15T16:33:26;8.57;;;5.18;;
52057;SDS011;38063;53.210;6.504;2022-11-15T16:35:52;8.13;;;5.53;;
52057;SDS011;38063;53.210;6.504;2022-11-15T16:38:21;9.05;;;5.20;;
52057;SDS011;38063;53.210;6.504;2022-11-15T16:40:46;5.95;;;4.70;;
52057;SDS011;38063;53.210;6.504;2022-11-15T16:43:12;7.25;;;4.50;;
52057;SDS011;38063;53.210;6.504;2022-11-15T16:45:38;9.25;;;4.82;;
52057;SDS011;38063;53.210;6.504;2022-11-15T16:48:04;8.57;;;4.68;;
52057;SDS011;38063;53.210;6.504;2022-11-15T16:50:30;6.10;;;4.38;;
52057;SDS011;38063;53.210;6.504;2022-11-15T16:53:03;5.80;;;4.47;;
52057;SDS011;38063;53.210;6.504;2022-11-15T16:55:29;6.47;;;4.70;;
52057;SDS011;38063;53.210;6.504;2022-11-15T16:57:55;5.07;;;3.78;;
52057;SDS011;38063;53.210;6.504;2022-11-15T17:00:25;7.00;;;4.45;;
52057;SDS011;38063;53.210;6.504;2022-11-15T17:02:52;5.65;;;4.25;;
52057;SDS011;38063;53.210;6.504;2022-11-15T17:05:19;8.15;;;4.22;;
52057;SDS011;38063;53.210;6.504;2022-11-15T17:07:47;4.78;;;4.13;;